sensor_id;sensor_type;location;lat;lon;timestamp;temperature;humidity
68274;SHT30;55104;47.356;19.448;2024-02-21T00:01:50;6.84;89.62
68274;SHT30;55104;47.356;19.448;2024-02-21T00:04:53;6.84;89.59
68274;SHT30;55104;47.356;19.448;2024-02-21T00:07:57;6.85;89.65
68274;SHT30;55104;47.356;19.448;2024-02-21T00:10:59;6.88;89.60
68274;SHT30;55104;47.356;19.448;2024-02-21T00:14:02;6.88;89.56
68274;SHT30;55104;47.356;19.448;2024-02-21T00:17:04;6.88;89.50
68274;SHT30;55104;47.356;19.448;2024-02-21T00:20:07;6.90;89.55
68274;SHT30;55104;47.356;19.448;2024-02-21T00:23:09;6.84;89.66
68274;SHT30;55104;47.356;19.448;2024-02-21T00:26:12;6.88;89.39
68274;SHT30;55104;47.356;19.448;2024-02-21T00:29:15;6.88;89.23
68274;SHT30;55104;47.356;19.448;2024-02-21T00:32:17;6.81;89.21
68274;SHT30;55104;47.356;19.448;2024-02-21T00:35:19;6.77;89.12
68274;SHT30;55104;47.356;19.448;2024-02-21T00:38:21;6.74;88.85
68274;SHT30;55104;47.356;19.448;2024-02-21T00:41:24;6.73;88.62
68274;SHT30;55104;47.356;19.448;2024-02-21T00:44:26;6.71;88.36
68274;SHT30;55104;47.356;19.448;2024-02-21T00:47:28;6.60;88.61
68274;SHT30;55104;47.356;19.448;2024-02-21T00:50:31;6.52;88.87
68274;SHT30;55104;47.356;19.448;2024-02-21T00:53:33;6.53;88.94
68274;SHT30;55104;47.356;19.448;2024-02-21T00:56:35;6.56;88.73
68274;SHT30;55104;47.356;19.448;2024-02-21T00:59:37;6.52;89.01
68274;SHT30;55104;47.356;19.448;2024-02-21T01:02:39;6.49;89.18
68274;SHT30;55104;47.356;19.448;2024-02-21T01:05:42;6.43;89.38
68274;SHT30;55104;47.356;19.448;2024-02-21T01:08:49;6.53;89.17
68274;SHT30;55104;47.356;19.448;2024-02-21T01:11:51;6.57;88.57
68274;SHT30;55104;47.356;19.448;2024-02-21T01:14:53;6.80;87.19
68274;SHT30;55104;47.356;19.448;2024-02-21T01:17:56;6.90;86.82
68274;SHT30;55104;47.356;19.448;2024-02-21T01:20:58;6.98;86.34
68274;SHT30;55104;47.356;19.448;2024-02-21T01:24:01;7.05;86.14
68274;SHT30;55104;47.356;19.448;2024-02-21T01:27:03;7.05;86.00
68274;SHT30;55104;47.356;19.448;2024-02-21T01:30:06;7.09;85.70
68274;SHT30;55104;47.356;19.448;2024-02-21T01:33:09;7.05;85.93
68274;SHT30;55104;47.356;19.448;2024-02-21T01:36:11;7.07;86.02
68274;SHT30;55104;47.356;19.448;2024-02-21T01:39:13;7.04;85.77
68274;SHT30;55104;47.356;19.448;2024-02-21T01:42:16;7.07;85.53
68274;SHT30;55104;47.356;19.448;2024-02-21T01:45:18;7.07;85.45
68274;SHT30;55104;47.356;19.448;2024-02-21T01:48:21;7.02;85.47
68274;SHT30;55104;47.356;19.448;2024-02-21T01:51:24;6.99;85.54
68274;SHT30;55104;47.356;19.448;2024-02-21T01:54:27;7.01;85.31
68274;SHT30;55104;47.356;19.448;2024-02-21T01:57:32;6.99;85.11
68274;SHT30;55104;47.356;19.448;2024-02-21T02:00:35;6.98;84.92
68274;SHT30;55104;47.356;19.448;2024-02-21T02:03:38;7.01;84.59
68274;SHT30;55104;47.356;19.448;2024-02-21T02:06:41;6.98;84.80
68274;SHT30;55104;47.356;19.448;2024-02-21T02:09:43;6.92;85.18
68274;SHT30;55104;47.356;19.448;2024-02-21T02:12:46;6.94;85.34
68274;SHT30;55104;47.356;19.448;2024-02-21T02:15:49;6.90;85.42
68274;SHT30;55104;47.356;19.448;2024-02-21T02:18:51;6.90;85.72
68274;SHT30;55104;47.356;19.448;2024-02-21T02:21:59;6.87;85.65
68274;SHT30;55104;47.356;19.448;2024-02-21T02:25:02;6.79;86.05
68274;SHT30;55104;47.356;19.448;2024-02-21T02:28:08;6.77;85.92
68274;SHT30;55104;47.356;19.448;2024-02-21T02:31:10;6.79;85.82
68274;SHT30;55104;47.356;19.448;2024-02-21T02:34:13;6.79;85.75
68274;SHT30;55104;47.356;19.448;2024-02-21T02:37:15;6.77;85.42
68274;SHT30;55104;47.356;19.448;2024-02-21T02:40:18;6.71;85.44
68274;SHT30;55104;47.356;19.448;2024-02-21T02:43:20;6.70;85.18
68274;SHT30;55104;47.356;19.448;2024-02-21T02:46:23;6.71;85.16
68274;SHT30;55104;47.356;19.448;2024-02-21T02:49:25;6.74;84.90
68274;SHT30;55104;47.356;19.448;2024-02-21T02:52:27;6.69;85.17
68274;SHT30;55104;47.356;19.448;2024-02-21T02:55:29;6.66;85.12
68274;SHT30;55104;47.356;19.448;2024-02-21T02:58:32;6.66;85.14
68274;SHT30;55104;47.356;19.448;2024-02-21T03:01:34;6.61;85.36
68274;SHT30;55104;47.356;19.448;2024-02-21T03:04:39;6.56;85.55
68274;SHT30;55104;47.356;19.448;2024-02-21T03:07:42;6.54;85.73
68274;SHT30;55104;47.356;19.448;2024-02-21T03:10:45;6.57;85.62
68274;SHT30;55104;47.356;19.448;2024-02-21T03:13:47;6.54;85.77
68274;SHT30;55104;47.356;19.448;2024-02-21T03:16:51;6.47;85.91
68274;SHT30;55104;47.356;19.448;2024-02-21T03:19:53;6.49;85.93
68274;SHT30;55104;47.356;19.448;2024-02-21T03:22:57;6.44;86.05
68274;SHT30;55104;47.356;19.448;2024-02-21T03:25:59;6.47;85.84
68274;SHT30;55104;47.356;19.448;2024-02-21T03:29:03;6.47;85.74
68274;SHT30;55104;47.356;19.448;2024-02-21T03:32:05;6.39;86.04
68274;SHT30;55104;47.356;19.448;2024-02-21T03:35:08;6.37;85.91
68274;SHT30;55104;47.356;19.448;2024-02-21T03:38:10;6.43;85.48
68274;SHT30;55104;47.356;19.448;2024-02-21T03:41:12;6.46;85.41
68274;SHT30;55104;47.356;19.448;2024-02-21T03:44:14;6.42;85.17
68274;SHT30;55104;47.356;19.448;2024-02-21T03:47:16;6.39;85.34
68274;SHT30;55104;47.356;19.448;2024-02-21T03:50:19;6.36;85.38
68274;SHT30;55104;47.356;19.448;2024-02-21T03:53:21;6.36;85.62
68274;SHT30;55104;47.356;19.448;2024-02-21T03:56:26;6.33;85.73
68274;SHT30;55104;47.356;19.448;2024-02-21T03:59:29;6.29;85.96
68274;SHT30;55104;47.356;19.448;2024-02-21T04:02:31;6.26;85.91
68274;SHT30;55104;47.356;19.448;2024-02-21T04:05:33;6.28;86.06
68274;SHT30;55104;47.356;19.448;2024-02-21T04:08:35;6.22;86.09
68274;SHT30;55104;47.356;19.448;2024-02-21T04:11:38;6.24;86.01
68274;SHT30;55104;47.356;19.448;2024-02-21T04:14:40;6.19;86.12
68274;SHT30;55104;47.356;19.448;2024-02-21T04:17:46;6.12;86.29
68274;SHT30;55104;47.356;19.448;2024-02-21T04:20:48;6.11;86.22
68274;SHT30;55104;47.356;19.448;2024-02-21T04:23:50;6.02;86.45
68274;SHT30;55104;47.356;19.448;2024-02-21T04:26:52;5.97;86.66
68274;SHT30;55104;47.356;19.448;2024-02-21T04:29:54;5.87;86.76
68274;SHT30;55104;47.356;19.448;2024-02-21T04:32:57;5.86;86.79
68274;SHT30;55104;47.356;19.448;2024-02-21T04:35:59;5.80;86.92
68274;SHT30;55104;47.356;19.448;2024-02-21T04:39:02;5.71;87.18
68274;SHT30;55104;47.356;19.448;2024-02-21T04:42:04;5.54;87.41
68274;SHT30;55104;47.356;19.448;2024-02-21T04:45:07;5.49;87.66
68274;SHT30;55104;47.356;19.448;2024-02-21T04:48:09;5.44;87.71
68274;SHT30;55104;47.356;19.448;2024-02-21T04:51:12;5.32;87.91
68274;SHT30;55104;47.356;19.448;2024-02-21T04:54:15;5.26;87.81
68274;SHT30;55104;47.356;19.448;2024-02-21T04:57:17;5.22;88.04
68274;SHT30;55104;47.356;19.448;2024-02-21T05:00:19;5.11;88.29
68274;SHT30;55104;47.356;19.448;2024-02-21T05:03:21;5.01;88.41
68274;SHT30;55104;47.356;19.448;2024-02-21T05:06:24;5.04;88.45
68274;SHT30;55104;47.356;19.448;2024-02-21T05:09:26;4.98;88.41
68274;SHT30;55104;47.356;19.448;2024-02-21T05:12:30;4.88;88.65
68274;SHT30;55104;47.356;19.448;2024-02-21T05:15:32;4.83;88.82
68274;SHT30;55104;47.356;19.448;2024-02-21T05:18:34;4.87;88.82
68274;SHT30;55104;47.356;19.448;2024-02-21T05:21:37;4.77;88.84
68274;SHT30;55104;47.356;19.448;2024-02-21T05:24:39;4.84;88.88
68274;SHT30;55104;47.356;19.448;2024-02-21T05:27:42;4.73;89.08
68274;SHT30;55104;47.356;19.448;2024-02-21T05:30:44;4.64;89.51
68274;SHT30;55104;47.356;19.448;2024-02-21T05:33:47;4.57;89.81
68274;SHT30;55104;47.356;19.448;2024-02-21T05:36:49;4.59;90.00
68274;SHT30;55104;47.356;19.448;2024-02-21T05:39:51;4.56;89.91
68274;SHT30;55104;47.356;19.448;2024-02-21T05:42:53;4.49;89.96
68274;SHT30;55104;47.356;19.448;2024-02-21T05:45:56;4.43;90.12
68274;SHT30;55104;47.356;19.448;2024-02-21T05:48:58;4.35;90.22
68274;SHT30;55104;47.356;19.448;2024-02-21T05:52:00;4.22;90.56
68274;SHT30;55104;47.356;19.448;2024-02-21T05:55:02;4.18;90.73
68274;SHT30;55104;47.356;19.448;2024-02-21T05:58:05;4.08;90.96
68274;SHT30;55104;47.356;19.448;2024-02-21T06:01:07;4.01;90.92
68274;SHT30;55104;47.356;19.448;2024-02-21T06:04:10;3.95;91.04
68274;SHT30;55104;47.356;19.448;2024-02-21T06:07:13;3.85;91.51
68274;SHT30;55104;47.356;19.448;2024-02-21T06:10:15;3.84;91.62
68274;SHT30;55104;47.356;19.448;2024-02-21T06:13:18;3.78;91.75
68274;SHT30;55104;47.356;19.448;2024-02-21T06:16:20;3.76;91.90
68274;SHT30;55104;47.356;19.448;2024-02-21T06:19:23;3.71;92.24
68274;SHT30;55104;47.356;19.448;2024-02-21T06:22:25;3.70;92.17
68274;SHT30;55104;47.356;19.448;2024-02-21T06:25:27;3.73;92.49
68274;SHT30;55104;47.356;19.448;2024-02-21T06:28:30;3.70;92.33
68274;SHT30;55104;47.356;19.448;2024-02-21T06:31:32;3.74;92.48
68274;SHT30;55104;47.356;19.448;2024-02-21T06:34:34;3.71;92.43
68274;SHT30;55104;47.356;19.448;2024-02-21T06:37:37;3.77;92.55
68274;SHT30;55104;47.356;19.448;2024-02-21T06:40:42;3.88;92.59
68274;SHT30;55104;47.356;19.448;2024-02-21T06:43:45;3.98;92.45
68274;SHT30;55104;47.356;19.448;2024-02-21T06:46:48;4.06;92.33
68274;SHT30;55104;47.356;19.448;2024-02-21T06:49:51;4.19;92.11
68274;SHT30;55104;47.356;19.448;2024-02-21T06:52:53;4.29;91.89
68274;SHT30;55104;47.356;19.448;2024-02-21T06:55:55;4.29;91.97
68274;SHT30;55104;47.356;19.448;2024-02-21T06:58:58;4.40;91.82
68274;SHT30;55104;47.356;19.448;2024-02-21T07:02:00;4.46;91.85
68274;SHT30;55104;47.356;19.448;2024-02-21T07:05:03;4.67;91.56
68274;SHT30;55104;47.356;19.448;2024-02-21T07:08:06;4.87;91.30
68274;SHT30;55104;47.356;19.448;2024-02-21T07:11:08;5.05;90.62
68274;SHT30;55104;47.356;19.448;2024-02-21T07:14:10;5.18;90.42
68274;SHT30;55104;47.356;19.448;2024-02-21T07:17:13;5.42;89.79
68274;SHT30;55104;47.356;19.448;2024-02-21T07:20:15;5.52;89.59
68274;SHT30;55104;47.356;19.448;2024-02-21T07:23:18;5.61;89.39
68274;SHT30;55104;47.356;19.448;2024-02-21T07:26:20;5.83;88.92
68274;SHT30;55104;47.356;19.448;2024-02-21T07:29:23;5.90;88.89
68274;SHT30;55104;47.356;19.448;2024-02-21T07:32:25;6.05;88.75
68274;SHT30;55104;47.356;19.448;2024-02-21T07:35:28;6.28;88.10
68274;SHT30;55104;47.356;19.448;2024-02-21T07:38:30;6.46;87.01
68274;SHT30;55104;47.356;19.448;2024-02-21T07:41:32;6.61;86.51
68274;SHT30;55104;47.356;19.448;2024-02-21T07:44:36;6.71;85.65
68274;SHT30;55104;47.356;19.448;2024-02-21T07:47:38;6.81;85.86
68274;SHT30;55104;47.356;19.448;2024-02-21T07:50:40;6.87;85.20
68274;SHT30;55104;47.356;19.448;2024-02-21T07:53:43;6.97;85.36
68274;SHT30;55104;47.356;19.448;2024-02-21T07:56:46;7.08;83.87
68274;SHT30;55104;47.356;19.448;2024-02-21T07:59:49;7.25;83.59
68274;SHT30;55104;47.356;19.448;2024-02-21T08:02:51;7.46;83.53
68274;SHT30;55104;47.356;19.448;2024-02-21T08:05:54;7.52;82.58
68274;SHT30;55104;47.356;19.448;2024-02-21T08:08:56;7.59;82.60
68274;SHT30;55104;47.356;19.448;2024-02-21T08:11:59;7.63;82.31
68274;SHT30;55104;47.356;19.448;2024-02-21T08:15:02;7.67;81.81
68274;SHT30;55104;47.356;19.448;2024-02-21T08:18:08;7.75;82.27
68274;SHT30;55104;47.356;19.448;2024-02-21T08:21:11;7.75;81.21
68274;SHT30;55104;47.356;19.448;2024-02-21T08:24:14;7.69;81.27
68274;SHT30;55104;47.356;19.448;2024-02-21T08:27:16;7.67;79.72
68274;SHT30;55104;47.356;19.448;2024-02-21T08:30:18;7.67;77.95
68274;SHT30;55104;47.356;19.448;2024-02-21T08:33:22;7.66;78.78
68274;SHT30;55104;47.356;19.448;2024-02-21T08:36:27;7.78;78.59
68274;SHT30;55104;47.356;19.448;2024-02-21T08:39:30;8.02;78.62
68274;SHT30;55104;47.356;19.448;2024-02-21T08:42:32;8.35;76.08
68274;SHT30;55104;47.356;19.448;2024-02-21T08:45:35;8.49;74.43
68274;SHT30;55104;47.356;19.448;2024-02-21T08:48:37;8.68;74.62
68274;SHT30;55104;47.356;19.448;2024-02-21T08:51:40;8.81;74.34
68274;SHT30;55104;47.356;19.448;2024-02-21T08:54:42;8.92;72.99
68274;SHT30;55104;47.356;19.448;2024-02-21T08:57:45;8.89;73.12
68274;SHT30;55104;47.356;19.448;2024-02-21T09:00:47;9.02;73.42
68274;SHT30;55104;47.356;19.448;2024-02-21T09:03:49;9.33;72.12
68274;SHT30;55104;47.356;19.448;2024-02-21T09:06:55;9.51;70.65
68274;SHT30;55104;47.356;19.448;2024-02-21T09:09:58;9.32;69.81
68274;SHT30;55104;47.356;19.448;2024-02-21T09:13:00;9.29;69.77
68274;SHT30;55104;47.356;19.448;2024-02-21T09:16:02;9.38;70.09
68274;SHT30;55104;47.356;19.448;2024-02-21T09:19:05;9.57;69.61
68274;SHT30;55104;47.356;19.448;2024-02-21T09:22:07;9.70;69.96
68274;SHT30;55104;47.356;19.448;2024-02-21T09:25:12;9.83;68.64
68274;SHT30;55104;47.356;19.448;2024-02-21T09:28:14;9.83;68.01
68274;SHT30;55104;47.356;19.448;2024-02-21T09:31:16;9.76;67.86
68274;SHT30;55104;47.356;19.448;2024-02-21T09:34:19;9.88;67.10
68274;SHT30;55104;47.356;19.448;2024-02-21T09:37:22;10.02;66.69
68274;SHT30;55104;47.356;19.448;2024-02-21T09:40:24;10.06;66.63
68274;SHT30;55104;47.356;19.448;2024-02-21T09:43:27;10.08;65.00
68274;SHT30;55104;47.356;19.448;2024-02-21T09:46:48;9.99;64.77
68274;SHT30;55104;47.356;19.448;2024-02-21T09:49:54;10.19;65.20
68274;SHT30;55104;47.356;19.448;2024-02-21T09:52:56;10.25;64.51
68274;SHT30;55104;47.356;19.448;2024-02-21T09:55:59;10.38;63.88
68274;SHT30;55104;47.356;19.448;2024-02-21T09:59:02;10.43;63.87
68274;SHT30;55104;47.356;19.448;2024-02-21T10:02:07;10.56;64.32
68274;SHT30;55104;47.356;19.448;2024-02-21T10:05:10;10.77;63.58
68274;SHT30;55104;47.356;19.448;2024-02-21T10:08:14;10.83;63.42
68274;SHT30;55104;47.356;19.448;2024-02-21T10:11:24;11.08;63.56
68274;SHT30;55104;47.356;19.448;2024-02-21T10:14:26;11.15;62.62
68274;SHT30;55104;47.356;19.448;2024-02-21T10:17:29;10.84;62.65
68274;SHT30;55104;47.356;19.448;2024-02-21T10:20:31;11.05;62.35
68274;SHT30;55104;47.356;19.448;2024-02-21T10:23:49;11.10;61.27
68274;SHT30;55104;47.356;19.448;2024-02-21T10:27:02;11.33;61.70
68274;SHT30;55104;47.356;19.448;2024-02-21T10:30:07;11.03;60.72
68274;SHT30;55104;47.356;19.448;2024-02-21T10:33:15;11.11;61.57
68274;SHT30;55104;47.356;19.448;2024-02-21T10:36:19;11.39;61.94
68274;SHT30;55104;47.356;19.448;2024-02-21T10:39:21;11.66;63.54
68274;SHT30;55104;47.356;19.448;2024-02-21T10:42:28;11.97;62.60
68274;SHT30;55104;47.356;19.448;2024-02-21T10:45:36;12.15;60.72
68274;SHT30;55104;47.356;19.448;2024-02-21T10:48:42;12.32;60.56
68274;SHT30;55104;47.356;19.448;2024-02-21T10:51:46;12.46;59.42
68274;SHT30;55104;47.356;19.448;2024-02-21T10:54:55;12.61;58.71
68274;SHT30;55104;47.356;19.448;2024-02-21T10:58:01;12.42;57.94
68274;SHT30;55104;47.356;19.448;2024-02-21T11:01:04;12.21;57.85
68274;SHT30;55104;47.356;19.448;2024-02-21T11:04:08;12.31;59.54
68274;SHT30;55104;47.356;19.448;2024-02-21T11:07:13;12.49;60.15
68274;SHT30;55104;47.356;19.448;2024-02-21T11:10:25;12.63;59.42
68274;SHT30;55104;47.356;19.448;2024-02-21T11:13:46;12.22;58.36
68274;SHT30;55104;47.356;19.448;2024-02-21T11:16:48;12.42;59.21
68274;SHT30;55104;47.356;19.448;2024-02-21T11:19:50;12.39;58.14
68274;SHT30;55104;47.356;19.448;2024-02-21T11:22:53;12.41;58.45
68274;SHT30;55104;47.356;19.448;2024-02-21T11:26:07;12.41;57.59
68274;SHT30;55104;47.356;19.448;2024-02-21T11:29:09;12.52;56.35
68274;SHT30;55104;47.356;19.448;2024-02-21T11:32:17;12.70;55.46
68274;SHT30;55104;47.356;19.448;2024-02-21T11:35:21;13.01;56.95
68274;SHT30;55104;47.356;19.448;2024-02-21T11:38:23;12.56;57.26
68274;SHT30;55104;47.356;19.448;2024-02-21T11:41:27;12.38;57.94
68274;SHT30;55104;47.356;19.448;2024-02-21T11:44:30;12.13;59.29
68274;SHT30;55104;47.356;19.448;2024-02-21T11:47:32;12.04;58.56
68274;SHT30;55104;47.356;19.448;2024-02-21T11:50:35;12.10;59.84
68274;SHT30;55104;47.356;19.448;2024-02-21T11:53:41;11.98;59.05
68274;SHT30;55104;47.356;19.448;2024-02-21T11:56:59;12.07;59.73
68274;SHT30;55104;47.356;19.448;2024-02-21T12:00:15;12.13;59.42
68274;SHT30;55104;47.356;19.448;2024-02-21T12:03:17;12.14;59.64
68274;SHT30;55104;47.356;19.448;2024-02-21T12:06:20;12.07;59.47
68274;SHT30;55104;47.356;19.448;2024-02-21T12:09:25;11.93;60.27
68274;SHT30;55104;47.356;19.448;2024-02-21T12:12:27;11.80;59.04
68274;SHT30;55104;47.356;19.448;2024-02-21T12:15:31;11.74;60.67
68274;SHT30;55104;47.356;19.448;2024-02-21T12:18:33;11.55;61.08
68274;SHT30;55104;47.356;19.448;2024-02-21T12:21:36;11.42;60.96
68274;SHT30;55104;47.356;19.448;2024-02-21T12:24:39;11.33;62.10
68274;SHT30;55104;47.356;19.448;2024-02-21T12:27:45;11.28;62.51
68274;SHT30;55104;47.356;19.448;2024-02-21T12:30:47;11.19;64.52
68274;SHT30;55104;47.356;19.448;2024-02-21T12:33:50;11.19;64.36
68274;SHT30;55104;47.356;19.448;2024-02-21T12:36:54;11.12;64.88
68274;SHT30;55104;47.356;19.448;2024-02-21T12:39:56;11.18;65.33
68274;SHT30;55104;47.356;19.448;2024-02-21T12:42:59;11.23;65.80
68274;SHT30;55104;47.356;19.448;2024-02-21T12:46:04;11.15;66.08
68274;SHT30;55104;47.356;19.448;2024-02-21T12:49:10;11.18;66.29
68274;SHT30;55104;47.356;19.448;2024-02-21T12:52:12;11.04;66.93
68274;SHT30;55104;47.356;19.448;2024-02-21T12:55:15;11.00;66.81
68274;SHT30;55104;47.356;19.448;2024-02-21T12:58:18;10.98;66.94
68274;SHT30;55104;47.356;19.448;2024-02-21T13:01:21;10.98;66.68
68274;SHT30;55104;47.356;19.448;2024-02-21T13:04:24;11.00;66.98
68274;SHT30;55104;47.356;19.448;2024-02-21T13:07:27;11.07;66.70
68274;SHT30;55104;47.356;19.448;2024-02-21T13:10:29;11.16;66.11
68274;SHT30;55104;47.356;19.448;2024-02-21T13:13:31;11.18;66.36
68274;SHT30;55104;47.356;19.448;2024-02-21T13:16:33;11.19;64.92
68274;SHT30;55104;47.356;19.448;2024-02-21T13:19:41;11.33;65.19
68274;SHT30;55104;47.356;19.448;2024-02-21T13:22:44;11.31;64.07
68274;SHT30;55104;47.356;19.448;2024-02-21T13:25:47;11.38;64.52
68274;SHT30;55104;47.356;19.448;2024-02-21T13:28:49;11.47;64.45
68274;SHT30;55104;47.356;19.448;2024-02-21T13:31:51;11.39;64.98
68274;SHT30;55104;47.356;19.448;2024-02-21T13:34:53;11.42;64.82
68274;SHT30;55104;47.356;19.448;2024-02-21T13:37:56;11.36;64.24
68274;SHT30;55104;47.356;19.448;2024-02-21T13:40:58;11.35;64.09
68274;SHT30;55104;47.356;19.448;2024-02-21T13:44:03;11.44;64.28
68274;SHT30;55104;47.356;19.448;2024-02-21T13:47:06;11.50;64.05
68274;SHT30;55104;47.356;19.448;2024-02-21T13:50:10;11.36;63.57
68274;SHT30;55104;47.356;19.448;2024-02-21T13:53:13;11.60;64.10
68274;SHT30;55104;47.356;19.448;2024-02-21T13:56:15;11.78;63.45
68274;SHT30;55104;47.356;19.448;2024-02-21T13:59:18;11.78;64.50
68274;SHT30;55104;47.356;19.448;2024-02-21T14:02:20;11.93;64.04
68274;SHT30;55104;47.356;19.448;2024-02-21T14:05:23;11.81;65.04
68274;SHT30;55104;47.356;19.448;2024-02-21T14:08:25;11.86;64.04
68274;SHT30;55104;47.356;19.448;2024-02-21T14:11:28;11.73;63.96
68274;SHT30;55104;47.356;19.448;2024-02-21T14:14:31;11.70;63.65
68274;SHT30;55104;47.356;19.448;2024-02-21T14:17:37;11.67;64.28
68274;SHT30;55104;47.356;19.448;2024-02-21T14:20:41;11.67;64.02
68274;SHT30;55104;47.356;19.448;2024-02-21T14:23:43;11.66;63.04
68274;SHT30;55104;47.356;19.448;2024-02-21T14:26:46;11.60;63.31
68274;SHT30;55104;47.356;19.448;2024-02-21T14:29:50;11.53;64.34
68274;SHT30;55104;47.356;19.448;2024-02-21T14:32:54;11.63;63.73
68274;SHT30;55104;47.356;19.448;2024-02-21T14:35:56;11.67;63.92
68274;SHT30;55104;47.356;19.448;2024-02-21T14:38:59;11.70;63.63
68274;SHT30;55104;47.356;19.448;2024-02-21T14:42:01;11.74;63.25
68274;SHT30;55104;47.356;19.448;2024-02-21T14:45:05;11.80;63.24
68274;SHT30;55104;47.356;19.448;2024-02-21T14:48:07;11.63;62.87
68274;SHT30;55104;47.356;19.448;2024-02-21T14:51:10;11.47;63.65
68274;SHT30;55104;47.356;19.448;2024-02-21T14:54:12;11.42;63.01
68274;SHT30;55104;47.356;19.448;2024-02-21T14:57:14;11.33;63.26
68274;SHT30;55104;47.356;19.448;2024-02-21T15:00:17;11.19;63.83
68274;SHT30;55104;47.356;19.448;2024-02-21T15:03:19;11.21;63.39
68274;SHT30;55104;47.356;19.448;2024-02-21T15:06:23;11.15;64.12
68274;SHT30;55104;47.356;19.448;2024-02-21T15:09:25;11.10;64.15
68274;SHT30;55104;47.356;19.448;2024-02-21T15:12:28;11.10;63.25
68274;SHT30;55104;47.356;19.448;2024-02-21T15:15:31;11.15;63.85
68274;SHT30;55104;47.356;19.448;2024-02-21T15:18:34;11.23;64.38
68274;SHT30;55104;47.356;19.448;2024-02-21T15:21:40;11.28;62.39
68274;SHT30;55104;47.356;19.448;2024-02-21T15:24:42;11.23;62.17
68274;SHT30;55104;47.356;19.448;2024-02-21T15:27:45;11.21;63.52
68274;SHT30;55104;47.356;19.448;2024-02-21T15:30:47;11.11;63.45
68274;SHT30;55104;47.356;19.448;2024-02-21T15:33:51;10.97;63.02
68274;SHT30;55104;47.356;19.448;2024-02-21T15:36:54;10.90;63.43
68274;SHT30;55104;47.356;19.448;2024-02-21T15:39:56;10.76;63.22
68274;SHT30;55104;47.356;19.448;2024-02-21T15:42:59;10.64;63.20
68274;SHT30;55104;47.356;19.448;2024-02-21T15:46:02;10.57;63.83
68274;SHT30;55104;47.356;19.448;2024-02-21T15:49:05;10.46;64.38
68274;SHT30;55104;47.356;19.448;2024-02-21T15:52:07;10.36;64.50
68274;SHT30;55104;47.356;19.448;2024-02-21T15:55:09;10.25;64.99
68274;SHT30;55104;47.356;19.448;2024-02-21T15:58:14;10.21;65.23
68274;SHT30;55104;47.356;19.448;2024-02-21T16:01:16;10.13;65.09
68274;SHT30;55104;47.356;19.448;2024-02-21T16:04:18;10.09;65.31
68274;SHT30;55104;47.356;19.448;2024-02-21T16:07:20;9.94;65.59
68274;SHT30;55104;47.356;19.448;2024-02-21T16:10:23;9.88;66.03
68274;SHT30;55104;47.356;19.448;2024-02-21T16:13:25;9.77;66.20
68274;SHT30;55104;47.356;19.448;2024-02-21T16:16:27;9.66;66.80
68274;SHT30;55104;47.356;19.448;2024-02-21T16:19:29;9.54;67.61
68274;SHT30;55104;47.356;19.448;2024-02-21T16:22:32;9.43;67.79
68274;SHT30;55104;47.356;19.448;2024-02-21T16:25:34;9.30;68.24
68274;SHT30;55104;47.356;19.448;2024-02-21T16:28:38;9.19;68.96
68274;SHT30;55104;47.356;19.448;2024-02-21T16:31:41;9.05;69.23
68274;SHT30;55104;47.356;19.448;2024-02-21T16:34:43;8.92;69.75
68274;SHT30;55104;47.356;19.448;2024-02-21T16:37:46;8.84;71.05
68274;SHT30;55104;47.356;19.448;2024-02-21T16:40:49;8.71;71.66
68274;SHT30;55104;47.356;19.448;2024-02-21T16:43:52;8.57;72.29
68274;SHT30;55104;47.356;19.448;2024-02-21T16:46:55;8.45;72.35
68274;SHT30;55104;47.356;19.448;2024-02-21T16:49:57;8.35;72.47
68274;SHT30;55104;47.356;19.448;2024-02-21T16:53:00;8.24;72.59
68274;SHT30;55104;47.356;19.448;2024-02-21T16:56:04;8.22;73.12
68274;SHT30;55104;47.356;19.448;2024-02-21T16:59:07;8.18;72.58
68274;SHT30;55104;47.356;19.448;2024-02-21T17:02:10;8.13;73.63
68274;SHT30;55104;47.356;19.448;2024-02-21T17:05:12;8.11;74.51
68274;SHT30;55104;47.356;19.448;2024-02-21T17:08:15;8.01;75.19
68274;SHT30;55104;47.356;19.448;2024-02-21T17:11:18;7.87;75.70
68274;SHT30;55104;47.356;19.448;2024-02-21T17:14:20;7.77;76.35
68274;SHT30;55104;47.356;19.448;2024-02-21T17:17:24;7.69;76.79
68274;SHT30;55104;47.356;19.448;2024-02-21T17:20:26;7.64;76.87
68274;SHT30;55104;47.356;19.448;2024-02-21T17:23:29;7.63;76.20
68274;SHT30;55104;47.356;19.448;2024-02-21T17:26:31;7.63;76.23
68274;SHT30;55104;47.356;19.448;2024-02-21T17:29:34;7.62;76.32
68274;SHT30;55104;47.356;19.448;2024-02-21T17:32:36;7.62;76.23
68274;SHT30;55104;47.356;19.448;2024-02-21T17:35:38;7.62;76.01
68274;SHT30;55104;47.356;19.448;2024-02-21T17:38:43;7.63;76.19
68274;SHT30;55104;47.356;19.448;2024-02-21T17:41:46;7.60;76.44
68274;SHT30;55104;47.356;19.448;2024-02-21T17:44:48;7.57;77.03
68274;SHT30;55104;47.356;19.448;2024-02-21T17:47:50;7.59;76.96
68274;SHT30;55104;47.356;19.448;2024-02-21T17:50:54;7.53;77.14
68274;SHT30;55104;47.356;19.448;2024-02-21T17:53:57;7.56;77.77
68274;SHT30;55104;47.356;19.448;2024-02-21T17:57:00;7.50;77.98
68274;SHT30;55104;47.356;19.448;2024-02-21T18:00:04;7.42;77.64
68274;SHT30;55104;47.356;19.448;2024-02-21T18:03:15;7.37;77.85
68274;SHT30;55104;47.356;19.448;2024-02-21T18:06:18;7.30;78.46
68274;SHT30;55104;47.356;19.448;2024-02-21T18:09:22;7.29;78.66
68274;SHT30;55104;47.356;19.448;2024-02-21T18:12:24;7.23;78.04
68274;SHT30;55104;47.356;19.448;2024-02-21T18:15:27;7.23;77.86
68274;SHT30;55104;47.356;19.448;2024-02-21T18:18:29;7.27;77.74
68274;SHT30;55104;47.356;19.448;2024-02-21T18:21:33;7.23;77.83
68274;SHT30;55104;47.356;19.448;2024-02-21T18:24:36;7.22;78.41
68274;SHT30;55104;47.356;19.448;2024-02-21T18:27:38;7.20;78.45
68274;SHT30;55104;47.356;19.448;2024-02-21T18:30:40;7.20;78.57
68274;SHT30;55104;47.356;19.448;2024-02-21T18:33:44;7.16;78.35
68274;SHT30;55104;47.356;19.448;2024-02-21T18:36:47;7.18;78.56
68274;SHT30;55104;47.356;19.448;2024-02-21T18:39:50;7.22;77.95
68274;SHT30;55104;47.356;19.448;2024-02-21T18:42:52;7.23;77.46
68274;SHT30;55104;47.356;19.448;2024-02-21T18:45:54;7.29;77.63
68274;SHT30;55104;47.356;19.448;2024-02-21T18:48:58;7.35;76.96
68274;SHT30;55104;47.356;19.448;2024-02-21T18:52:00;7.37;77.18
68274;SHT30;55104;47.356;19.448;2024-02-21T18:55:03;7.43;76.17
68274;SHT30;55104;47.356;19.448;2024-02-21T18:58:06;7.46;75.97
68274;SHT30;55104;47.356;19.448;2024-02-21T19:01:08;7.50;76.11
68274;SHT30;55104;47.356;19.448;2024-02-21T19:04:11;7.49;76.24
68274;SHT30;55104;47.356;19.448;2024-02-21T19:07:13;7.53;76.06
68274;SHT30;55104;47.356;19.448;2024-02-21T19:10:16;7.59;75.90